createdAt,value
2022-10-20T00:02:26.421Z,8.75
2022-10-20T00:04:53.635Z,8.90
2022-10-20T00:07:20.791Z,7.65
2022-10-20T00:09:48.000Z,8.88
2022-10-20T00:12:15.254Z,9.93
2022-10-20T00:14:42.515Z,8.05
2022-10-20T00:17:09.718Z,13.93
2022-10-20T00:19:37.034Z,6.55
2022-10-20T00:22:04.586Z,5.80
2022-10-20T00:24:31.823Z,7.35
2022-10-20T00:26:59.016Z,8.10
2022-10-20T00:29:27.829Z,9.52
2022-10-20T00:31:55.098Z,12.65
2022-10-20T00:34:22.296Z,12.20
2022-10-20T00:36:51.326Z,8.23
2022-10-20T00:39:18.855Z,7.65
2022-10-20T00:41:46.139Z,7.32
2022-10-20T00:44:49.248Z,11.38
2022-10-20T00:47:20.783Z,5.97
2022-10-20T00:49:50.018Z,8.68
2022-10-20T00:52:20.827Z,10.18
2022-10-20T00:54:49.288Z,9.40
2022-10-20T00:57:17.486Z,11.63
2022-10-20T00:59:45.026Z,8.43
2022-10-20T01:02:12.626Z,10.00
2022-10-20T01:04:40.086Z,9.07
2022-10-20T01:07:07.279Z,6.82
2022-10-20T01:09:35.034Z,10.07
2022-10-20T01:12:31.062Z,5.57
2022-10-20T01:15:10.405Z,9.35
2022-10-20T01:18:14.464Z,8.10
2022-10-20T01:21:37.207Z,8.35
2022-10-20T01:24:44.412Z,7.82
2022-10-20T01:27:36.479Z,6.20
2022-10-20T01:30:10.907Z,9.27
2022-10-20T01:32:47.395Z,11.55
2022-10-20T01:35:20.447Z,11.73
2022-10-20T01:38:19.587Z,8.18
2022-10-20T01:41:09.927Z,7.68
2022-10-20T01:43:40.571Z,10.40
2022-10-20T01:46:11.437Z,9.25
2022-10-20T01:48:40.330Z,8.68
2022-10-20T01:51:09.466Z,7.57
2022-10-20T01:53:36.979Z,9.43
2022-10-20T01:56:05.271Z,14.95
2022-10-20T01:58:45.987Z,11.55
2022-10-20T02:01:42.505Z,10.40
2022-10-20T02:04:10.591Z,7.80
2022-10-20T02:07:26.988Z,7.93
2022-10-20T02:10:00.635Z,6.93
2022-10-20T02:12:31.010Z,9.05
2022-10-20T02:14:59.562Z,11.43
2022-10-20T02:17:28.841Z,8.23
2022-10-20T02:19:57.367Z,8.70
2022-10-20T02:22:25.441Z,9.95
2022-10-20T02:24:52.734Z,11.05
2022-10-20T02:27:32.887Z,6.80
2022-10-20T02:30:05.446Z,11.25
2022-10-20T02:32:35.687Z,9.60
2022-10-20T02:35:26.569Z,11.00
2022-10-20T02:37:54.271Z,10.52
2022-10-20T02:40:22.279Z,6.25
2022-10-20T02:42:49.731Z,8.82
2022-10-20T02:45:17.179Z,8.32
2022-10-20T02:47:44.374Z,7.38
2022-10-20T02:50:11.607Z,8.38
2022-10-20T02:52:38.827Z,8.30
2022-10-20T02:55:06.668Z,6.53
2022-10-20T02:57:34.248Z,7.13
2022-10-20T03:00:01.712Z,9.52
2022-10-20T03:02:28.950Z,8.63
2022-10-20T03:04:56.155Z,8.13
2022-10-20T03:07:23.373Z,8.45
2022-10-20T03:09:50.568Z,7.18
2022-10-20T03:12:17.776Z,7.55
2022-10-20T03:14:45.384Z,6.80
2022-10-20T03:17:12.604Z,9.77
2022-10-20T03:19:41.304Z,9.45
2022-10-20T03:22:08.548Z,9.90
2022-10-20T03:24:35.743Z,10.65
2022-10-20T03:27:03.278Z,7.68
2022-10-20T03:29:30.660Z,7.50
2022-10-20T03:31:57.946Z,9.57
2022-10-20T03:34:25.279Z,8.18
2022-10-20T03:36:52.517Z,6.93
2022-10-20T03:39:19.875Z,9.88
2022-10-20T03:41:47.107Z,6.95
2022-10-20T03:44:14.336Z,12.43
2022-10-20T03:46:41.518Z,6.20
2022-10-20T03:49:08.705Z,7.88
2022-10-20T03:51:35.944Z,9.98
2022-10-20T03:54:03.287Z,13.23
2022-10-20T03:56:30.481Z,9.57
2022-10-20T03:58:57.720Z,8.57
2022-10-20T04:01:30.163Z,8.18
2022-10-20T04:03:57.595Z,7.32
2022-10-20T04:06:24.905Z,7.85
2022-10-20T04:08:52.206Z,8.32
2022-10-20T04:11:19.488Z,7.72
2022-10-20T04:13:46.726Z,8.65
2022-10-20T04:16:13.975Z,6.78
2022-10-20T04:18:41.194Z,7.15
2022-10-20T04:21:08.388Z,6.57
2022-10-20T04:23:35.821Z,6.38
2022-10-20T04:26:14.523Z,6.60
2022-10-20T04:28:42.583Z,7.30
2022-10-20T04:31:09.751Z,6.80
2022-10-20T04:33:37.120Z,7.68
2022-10-20T04:36:07.747Z,6.25
2022-10-20T04:38:35.629Z,5.88
2022-10-20T04:41:04.460Z,4.35
2022-10-20T04:43:32.593Z,7.13
2022-10-20T04:46:08.021Z,5.82
2022-10-20T04:48:37.388Z,7.80
2022-10-20T04:51:07.712Z,6.25
2022-10-20T04:53:35.027Z,8.35
2022-10-20T04:56:02.861Z,6.28
2022-10-20T04:58:30.076Z,6.25
2022-10-20T05:01:08.951Z,6.60
2022-10-20T05:03:37.014Z,6.65
2022-10-20T05:06:13.439Z,7.95
2022-10-20T05:08:41.572Z,8.90
2022-10-20T05:11:09.959Z,10.02
2022-10-20T05:13:37.327Z,6.15
2022-10-20T05:16:06.233Z,8.50
2022-10-20T05:18:34.268Z,8.57
2022-10-20T05:21:19.156Z,7.93
2022-10-20T05:23:46.737Z,6.82
2022-10-20T05:26:16.587Z,7.75
2022-10-20T05:28:45.698Z,11.02
2022-10-20T05:31:13.713Z,12.40
2022-10-20T05:33:46.049Z,7.95
2022-10-20T05:36:19.340Z,9.00
2022-10-20T05:38:50.679Z,8.95
2022-10-20T05:41:24.591Z,6.28
2022-10-20T05:43:54.990Z,7.88
2022-10-20T05:46:22.178Z,6.88
2022-10-20T05:48:52.128Z,7.10
2022-10-20T05:51:22.155Z,7.25
2022-10-20T05:53:49.381Z,7.25
2022-10-20T05:56:19.601Z,5.57
2022-10-20T05:58:47.772Z,8.55
2022-10-20T06:01:23.878Z,7.60
2022-10-20T06:03:56.474Z,5.55
2022-10-20T06:06:28.787Z,6.20
2022-10-20T06:08:57.597Z,10.75
2022-10-20T06:11:25.466Z,9.02
2022-10-20T06:13:53.426Z,8.50
2022-10-20T06:16:23.135Z,7.93
2022-10-20T06:18:51.106Z,8.55
2022-10-20T06:21:21.090Z,7.88
2022-10-20T06:23:49.334Z,9.38
2022-10-20T06:26:25.041Z,7.35
2022-10-20T06:28:58.586Z,10.07
2022-10-20T06:31:32.353Z,6.03
2022-10-20T06:33:59.847Z,8.70
2022-10-20T06:36:27.912Z,7.63
2022-10-20T06:38:58.124Z,8.38
2022-10-20T06:41:26.843Z,7.40
2022-10-20T06:43:58.764Z,6.63
2022-10-20T06:46:32.274Z,11.48
2022-10-20T06:49:05.320Z,8.40
2022-10-20T06:51:34.088Z,9.05
2022-10-20T06:54:02.122Z,8.48
2022-10-20T06:56:31.704Z,13.15
2022-10-20T06:59:00.580Z,7.25
2022-10-20T07:01:39.498Z,6.07
2022-10-20T07:04:11.277Z,9.30
2022-10-20T07:06:40.568Z,7.43
2022-10-20T07:09:11.832Z,9.07
2022-10-20T07:11:39.121Z,7.43
2022-10-20T07:14:06.382Z,9.02
2022-10-20T07:16:34.924Z,12.23
2022-10-20T07:19:04.043Z,9.50
2022-10-20T07:21:36.569Z,6.70
2022-10-20T07:24:06.063Z,12.00
2022-10-20T07:26:41.661Z,7.55
2022-10-20T07:29:10.184Z,12.45
2022-10-20T07:31:40.353Z,7.97
2022-10-20T07:34:26.865Z,10.52
2022-10-20T07:36:56.077Z,8.02
2022-10-20T07:39:23.698Z,7.38
2022-10-20T07:41:51.374Z,16.30
2022-10-20T07:44:19.352Z,8.77
2022-10-20T07:46:46.606Z,7.18
2022-10-20T07:52:01.105Z,8.88
2022-10-20T07:54:28.308Z,9.40
2022-10-20T07:56:55.571Z,7.65
2022-10-20T07:59:22.755Z,7.05
2022-10-20T08:01:50.742Z,14.75
2022-10-20T08:04:19.102Z,12.95
2022-10-20T08:06:47.238Z,11.82
2022-10-20T08:09:14.440Z,10.63
2022-10-20T08:11:41.661Z,8.70
2022-10-20T08:14:08.949Z,7.00
2022-10-20T08:19:20.373Z,9.23
2022-10-20T08:21:47.592Z,9.15
2022-10-20T08:24:14.799Z,6.72
2022-10-20T08:26:42.046Z,10.60
2022-10-20T08:29:09.994Z,8.60
2022-10-20T08:31:37.406Z,9.57
2022-10-20T08:34:05.836Z,7.75
2022-10-20T08:36:33.092Z,9.55
2022-10-20T08:39:05.027Z,9.32
2022-10-20T08:41:55.347Z,12.80
2022-10-20T08:44:32.252Z,7.07
2022-10-20T08:47:03.369Z,12.63
2022-10-20T08:49:33.484Z,8.32
2022-10-20T08:52:01.532Z,8.02
2022-10-20T08:54:29.368Z,8.88
2022-10-20T08:56:58.637Z,7.50
2022-10-20T08:59:27.569Z,10.23
2022-10-20T09:01:56.559Z,10.43
2022-10-20T09:04:37.707Z,8.70
2022-10-20T09:07:17.114Z,11.20
2022-10-20T09:09:44.427Z,13.32
2022-10-20T09:12:14.955Z,10.88
2022-10-20T09:14:42.353Z,8.90
2022-10-20T09:17:18.445Z,10.57
2022-10-20T09:19:58.519Z,7.13
2022-10-20T09:22:33.366Z,10.77
2022-10-20T09:25:03.590Z,11.55
2022-10-20T09:27:39.632Z,13.32
2022-10-20T09:30:14.615Z,6.38
2022-10-20T09:32:46.606Z,8.90
2022-10-20T09:35:25.075Z,10.57
2022-10-20T09:38:10.266Z,6.78
2022-10-20T09:40:54.877Z,11.40
2022-10-20T09:43:22.197Z,7.75
2022-10-20T09:45:54.615Z,13.20
2022-10-20T09:48:29.267Z,10.48
2022-10-20T09:50:58.696Z,9.85
2022-10-20T09:53:32.139Z,8.75
2022-10-20T09:55:59.801Z,9.80
2022-10-20T09:58:32.825Z,10.77
2022-10-20T10:01:21.409Z,7.70
2022-10-20T10:03:52.757Z,11.30
2022-10-20T10:06:31.127Z,9.10
2022-10-20T10:09:00.899Z,10.98
2022-10-20T10:11:34.585Z,9.52
2022-10-20T10:14:02.691Z,9.25
2022-10-20T10:16:41.332Z,11.50
2022-10-20T10:19:17.368Z,9.10
2022-10-20T10:21:52.647Z,9.50
2022-10-20T10:24:30.585Z,9.77
2022-10-20T10:26:57.928Z,10.73
2022-10-20T10:29:29.589Z,8.85
2022-10-20T10:32:18.167Z,9.35
2022-10-20T10:34:51.633Z,12.05
2022-10-20T10:39:51.627Z,9.82
2022-10-20T10:42:40.157Z,10.50
2022-10-20T10:45:46.531Z,12.27
2022-10-20T10:48:54.224Z,11.07
2022-10-20T10:51:52.398Z,8.98
2022-10-20T10:54:47.094Z,11.18
2022-10-20T10:57:26.271Z,11.00
2022-10-20T10:59:53.615Z,12.77
2022-10-20T11:02:41.113Z,15.77
2022-10-20T11:05:57.605Z,12.77
2022-10-20T11:08:52.960Z,11.18
2022-10-20T11:11:45.308Z,11.75
2022-10-20T11:14:37.859Z,13.80
2022-10-20T11:17:25.529Z,14.35
2022-10-20T11:20:08.113Z,13.63
2022-10-20T11:22:42.486Z,11.27
2022-10-20T11:25:32.745Z,13.45
2022-10-20T11:28:00.633Z,13.57
2022-10-20T11:30:30.362Z,14.13
2022-10-20T11:33:09.675Z,14.00
2022-10-20T11:35:54.063Z,14.77
2022-10-20T11:38:25.246Z,20.77
2022-10-20T11:41:19.125Z,15.25
2022-10-20T11:44:02.211Z,13.63
2022-10-20T11:46:40.489Z,13.63
2022-10-20T11:49:09.370Z,14.13
2022-10-20T11:52:04.324Z,12.10
2022-10-20T11:55:06.959Z,14.05
2022-10-20T11:58:19.921Z,12.75
2022-10-20T12:01:15.384Z,16.70
2022-10-20T12:04:20.105Z,15.73
2022-10-20T12:07:09.318Z,13.02
2022-10-20T12:09:48.567Z,14.80
2022-10-20T12:12:42.274Z,11.63
2022-10-20T12:15:27.843Z,14.15
2022-10-20T12:17:59.608Z,13.15
2022-10-20T12:20:26.766Z,13.77
2022-10-20T12:22:59.039Z,13.75
2022-10-20T12:25:26.227Z,17.15
2022-10-20T12:28:22.571Z,11.85
2022-10-20T12:31:01.622Z,12.88
2022-10-20T12:33:50.216Z,11.70
2022-10-20T12:36:17.365Z,13.70
2022-10-20T12:38:47.712Z,13.07
2022-10-20T12:41:34.085Z,12.50
2022-10-20T12:44:05.457Z,12.55
2022-10-20T12:46:35.454Z,18.83
2022-10-20T12:49:11.050Z,12.95
2022-10-20T12:51:51.597Z,14.18
2022-10-20T12:54:24.775Z,20.73
2022-10-20T12:56:57.296Z,17.27
2022-10-20T12:59:38.095Z,14.80
2022-10-20T13:02:11.521Z,12.68
2022-10-20T13:05:06.549Z,20.88
2022-10-20T13:07:49.131Z,16.10
2022-10-20T13:10:31.418Z,15.27
2022-10-20T13:13:18.517Z,12.68
2022-10-20T13:15:46.071Z,17.52
2022-10-20T13:18:13.285Z,13.13
2022-10-20T13:21:00.569Z,12.40
2022-10-20T13:23:36.844Z,17.50
2022-10-20T13:26:28.273Z,12.90
2022-10-20T13:28:58.918Z,14.07
2022-10-20T13:31:48.448Z,15.07
2022-10-20T13:34:49.837Z,19.52
2022-10-20T13:37:33.260Z,13.13
2022-10-20T13:40:10.591Z,14.13
2022-10-20T13:42:45.551Z,13.45
2022-10-20T13:45:34.394Z,11.30
2022-10-20T13:48:36.812Z,11.15
2022-10-20T13:51:11.602Z,10.85
2022-10-20T13:53:43.764Z,14.20
2022-10-20T13:56:16.943Z,13.30
2022-10-20T13:59:05.928Z,14.98
2022-10-20T14:01:36.205Z,16.40
2022-10-20T14:04:26.157Z,11.52
2022-10-20T14:06:53.791Z,13.32
2022-10-20T14:09:25.859Z,13.75
2022-10-20T14:11:58.732Z,12.30
2022-10-20T14:14:28.617Z,14.25
2022-10-20T14:17:02.213Z,14.82
2022-10-20T14:19:30.640Z,14.73
2022-10-20T14:22:09.980Z,16.08
2022-10-20T14:24:42.436Z,12.48
2022-10-20T14:27:18.491Z,16.90
2022-10-20T14:29:46.225Z,13.77
2022-10-20T14:32:20.227Z,11.65
2022-10-20T14:34:58.630Z,15.00
2022-10-20T14:37:38.345Z,14.23
2022-10-20T14:40:17.765Z,15.18
2022-10-20T14:42:45.864Z,14.10
2022-10-20T14:45:25.562Z,12.38
2022-10-20T14:47:55.329Z,13.00
2022-10-20T14:50:34.883Z,16.92
2022-10-20T14:53:17.338Z,12.70
2022-10-20T14:55:44.652Z,13.68
2022-10-20T14:58:33.868Z,14.40
2022-10-20T15:01:21.813Z,15.80
2022-10-20T15:04:23.324Z,16.13
2022-10-20T15:06:50.850Z,15.27
2022-10-20T15:09:24.178Z,13.52
2022-10-20T15:11:51.500Z,16.10
2022-10-20T15:14:18.741Z,16.08
2022-10-20T15:16:48.319Z,17.30
2022-10-20T15:19:27.287Z,17.40
2022-10-20T15:22:21.048Z,19.40
2022-10-20T15:24:51.315Z,15.80
2022-10-20T15:27:18.512Z,19.08
2022-10-20T15:29:51.366Z,14.90
2022-10-20T15:32:18.659Z,15.30
2022-10-20T15:34:45.906Z,19.27
2022-10-20T15:37:13.086Z,13.82
2022-10-20T15:39:40.302Z,15.52
2022-10-20T15:42:11.326Z,18.77
2022-10-20T15:44:38.613Z,14.68
2022-10-20T15:47:05.864Z,18.17
2022-10-20T15:49:33.057Z,15.50
2022-10-20T15:52:00.224Z,16.20
2022-10-20T15:54:27.410Z,17.45
2022-10-20T15:56:54.594Z,17.13
2022-10-20T15:59:21.755Z,15.45
2022-10-20T16:01:48.907Z,16.58
2022-10-20T16:04:18.129Z,16.27
2022-10-20T16:06:45.600Z,20.35
2022-10-20T16:09:15.790Z,20.77
2022-10-20T16:11:44.335Z,16.60
2022-10-20T16:14:12.191Z,19.60
2022-10-20T16:16:39.706Z,17.48
2022-10-20T16:19:07.760Z,19.38
2022-10-20T16:21:35.123Z,17.10
2022-10-20T16:24:02.430Z,21.48
2022-10-20T16:26:29.715Z,20.05
2022-10-20T16:28:56.966Z,19.95
2022-10-20T16:31:24.187Z,26.52
2022-10-20T16:33:51.394Z,19.58
2022-10-20T16:36:19.133Z,26.23
2022-10-20T16:38:46.447Z,19.77
2022-10-20T16:41:15.546Z,21.67
2022-10-20T16:43:46.778Z,21.65
2022-10-20T16:46:15.244Z,28.23
2022-10-20T16:48:45.224Z,18.73
2022-10-20T16:51:16.549Z,18.67
2022-10-20T16:53:44.169Z,18.35
2022-10-20T16:56:15.264Z,17.08
2022-10-20T16:58:45.956Z,17.48
2022-10-20T17:01:15.788Z,17.55
2022-10-20T17:03:45.488Z,20.95
2022-10-20T17:06:13.693Z,20.65
2022-10-20T17:08:41.749Z,20.05
2022-10-20T17:11:11.474Z,18.02
2022-10-20T17:13:39.582Z,19.70
2022-10-20T17:16:10.499Z,21.55
2022-10-20T17:18:38.573Z,20.15
2022-10-20T17:21:06.673Z,21.67
2022-10-20T17:23:38.783Z,17.58
2022-10-20T17:26:17.509Z,19.13
2022-10-20T17:28:45.484Z,21.77
2022-10-20T17:31:14.553Z,19.15
2022-10-20T17:33:43.721Z,18.42
2022-10-20T17:36:14.257Z,18.45
2022-10-20T17:38:42.659Z,30.30
2022-10-20T17:41:13.256Z,22.30
2022-10-20T17:43:40.723Z,19.13
2022-10-20T17:46:13.119Z,21.50
2022-10-20T17:48:40.662Z,16.50
2022-10-20T17:51:09.015Z,16.63
2022-10-20T17:53:38.683Z,19.42
2022-10-20T17:56:12.693Z,18.45
2022-10-20T17:58:42.113Z,18.42
2022-10-20T18:01:29.715Z,16.20
2022-10-20T18:04:11.707Z,18.20
2022-10-20T18:06:39.993Z,17.75
2022-10-20T18:09:10.993Z,21.75
2022-10-20T18:11:41.007Z,18.60
2022-10-20T18:14:08.313Z,17.70
2022-10-20T18:16:37.053Z,19.00
2022-10-20T18:19:04.955Z,17.88
2022-10-20T18:21:32.768Z,21.70
2022-10-20T18:24:05.959Z,22.13
2022-10-20T18:26:35.643Z,13.95
2022-10-20T18:29:05.332Z,18.73
2022-10-20T18:31:35.897Z,20.80
2022-10-20T18:34:09.544Z,16.27
2022-10-20T18:36:40.415Z,18.90
2022-10-20T18:39:10.927Z,17.42
2022-10-20T18:41:40.640Z,18.13
2022-10-20T18:44:12.690Z,17.52
2022-10-20T18:46:40.901Z,17.38
2022-10-20T18:49:11.547Z,17.75
2022-10-20T18:51:39.044Z,17.35
2022-10-20T18:54:08.540Z,23.63
2022-10-20T18:56:36.523Z,17.95
2022-10-20T18:59:08.142Z,15.32
2022-10-20T19:01:38.105Z,16.55
2022-10-20T19:04:06.438Z,17.33
2022-10-20T19:06:39.700Z,15.43
2022-10-20T19:09:14.357Z,17.77
2022-10-20T19:11:42.633Z,14.40
2022-10-20T19:14:11.441Z,18.23
2022-10-20T19:16:39.848Z,21.98
2022-10-20T19:19:08.773Z,15.38
2022-10-20T19:21:36.621Z,18.30
2022-10-20T19:24:08.258Z,19.65
2022-10-20T19:26:41.798Z,15.85
2022-10-20T19:29:15.758Z,16.35
2022-10-20T19:31:43.045Z,15.93
2022-10-20T19:34:19.737Z,17.38
2022-10-20T19:36:47.544Z,23.08
2022-10-20T19:39:17.430Z,17.20
2022-10-20T19:41:45.525Z,16.52
2022-10-20T19:44:15.332Z,20.73
2022-10-20T19:46:45.056Z,15.95
2022-10-20T19:49:12.487Z,18.52
2022-10-20T19:51:40.276Z,19.00
2022-10-20T19:54:07.909Z,18.08
2022-10-20T19:56:35.812Z,19.77
2022-10-20T19:59:05.123Z,17.15
2022-10-20T20:01:33.127Z,28.63
2022-10-20T20:04:00.453Z,19.85
2022-10-20T20:06:28.730Z,23.42
2022-10-20T20:08:59.421Z,17.20
2022-10-20T20:11:30.692Z,19.55
2022-10-20T20:14:01.348Z,19.80
2022-10-20T20:16:29.290Z,19.13
2022-10-20T20:18:56.631Z,21.52
2022-10-20T20:21:24.140Z,19.63
2022-10-20T20:24:00.680Z,20.55
2022-10-20T20:26:33.236Z,18.55
2022-10-20T20:29:00.528Z,21.13
2022-10-20T20:31:28.376Z,21.00
2022-10-20T20:33:59.511Z,23.30
2022-10-20T20:36:27.931Z,20.55
2022-10-20T20:38:59.410Z,17.42
2022-10-20T20:41:30.115Z,19.40
2022-10-20T20:43:57.485Z,19.20
2022-10-20T20:46:30.764Z,20.77
2022-10-20T20:48:58.116Z,20.00
2022-10-20T20:51:25.986Z,18.90
2022-10-20T20:53:53.325Z,20.67
2022-10-20T20:56:23.231Z,19.23
2022-10-20T20:58:54.945Z,23.00
2022-10-20T21:01:28.304Z,19.67
2022-10-20T21:03:57.923Z,21.40
2022-10-20T21:06:33.746Z,20.27
2022-10-20T21:09:07.689Z,26.00
2022-10-20T21:11:35.713Z,21.20
2022-10-20T21:14:04.166Z,30.15
2022-10-20T21:16:34.007Z,21.80
2022-10-20T21:19:07.960Z,20.67
2022-10-20T21:21:43.785Z,24.95
2022-10-20T21:24:12.624Z,25.50
2022-10-20T21:26:40.207Z,18.95
2022-10-20T21:29:07.809Z,19.25
2022-10-20T21:31:35.227Z,22.35
2022-10-20T21:34:04.595Z,21.52
2022-10-20T21:36:35.203Z,25.85
2022-10-20T21:39:04.977Z,18.55
2022-10-20T21:41:34.452Z,20.48
2022-10-20T21:44:03.747Z,21.30
2022-10-20T21:46:43.869Z,20.40
2022-10-20T21:49:17.073Z,20.52
2022-10-20T21:51:47.005Z,21.02
2022-10-20T21:54:17.953Z,28.92
2022-10-20T21:56:46.889Z,19.40
2022-10-20T21:59:28.729Z,20.42
2022-10-20T22:02:01.007Z,24.50
2022-10-20T22:04:29.947Z,23.42
2022-10-20T22:06:59.154Z,26.73
2022-10-20T22:09:26.460Z,24.15
2022-10-20T22:11:56.490Z,23.42
2022-10-20T22:14:23.794Z,23.73
2022-10-20T22:16:51.294Z,24.27
2022-10-20T22:19:20.686Z,22.90
2022-10-20T22:21:49.722Z,20.48
2022-10-20T22:24:18.708Z,19.10
2022-10-20T22:26:51.491Z,22.55
2022-10-20T22:29:20.396Z,28.05
2022-10-20T22:31:47.895Z,21.67
2022-10-20T22:34:15.339Z,20.70
2022-10-20T22:36:44.218Z,19.83
2022-10-20T22:41:44.819Z,18.88
2022-10-20T22:44:12.020Z,19.65
2022-10-20T22:46:39.189Z,20.88
2022-10-20T22:49:06.380Z,17.67
2022-10-20T22:51:33.595Z,19.30
2022-10-20T22:54:00.847Z,21.45
2022-10-20T22:56:28.161Z,17.52
2022-10-20T22:58:55.512Z,20.67
2022-10-20T23:01:23.840Z,22.20
2022-10-20T23:03:51.666Z,20.70
2022-10-20T23:06:22.384Z,22.27
2022-10-20T23:08:52.498Z,14.68
2022-10-20T23:11:20.913Z,17.40
2022-10-20T23:13:49.794Z,21.70
2022-10-20T23:16:17.024Z,18.48
2022-10-20T23:18:44.427Z,23.33
2022-10-20T23:21:13.584Z,19.63
2022-10-20T23:23:40.754Z,16.23
2022-10-20T23:26:08.266Z,22.75
2022-10-20T23:28:36.462Z,19.77
2022-10-20T23:31:12.743Z,14.55
2022-10-20T23:33:41.365Z,17.38
2022-10-20T23:36:09.455Z,17.88
2022-10-20T23:38:36.643Z,22.45
2022-10-20T23:41:04.675Z,16.02
2022-10-20T23:43:33.168Z,17.42
2022-10-20T23:46:01.944Z,19.25
2022-10-20T23:48:29.848Z,18.15
2022-10-20T23:50:57.475Z,15.20
2022-10-20T23:53:25.207Z,15.52
2022-10-20T23:55:52.457Z,16.20
2022-10-20T23:58:22.180Z,14.68
